sensor_id;sensor_type;location;lat;lon;timestamp;P1;durP1;ratioP1;P2;durP2;ratioP2
75920;SDS011;64600;44.062;2.986;2023-03-22T18:03:07;4.32;;;2.25;;
75920;SDS011;64600;44.062;2.986;2023-03-22T18:05:33;4.45;;;2.25;;
75920;SDS011;64600;44.062;2.986;2023-03-22T18:07:58;4.57;;;1.98;;
75920;SDS011;64600;44.062;2.986;2023-03-22T18:10:25;10.32;;;6.38;;
75920;SDS011;64600;44.062;2.986;2023-03-22T18:12:51;5.45;;;3.60;;
75920;SDS011;64600;44.062;2.986;2023-03-22T18:15:18;4.90;;;2.90;;
75920;SDS011;64600;44.062;2.986;2023-03-22T18:17:45;4.75;;;2.88;;
75920;SDS011;64600;44.062;2.986;2023-03-22T18:20:15;6.07;;;3.83;;
75920;SDS011;64600;44.062;2.986;2023-03-22T18:22:44;4.60;;;2.78;;
75920;SDS011;64600;44.062;2.986;2023-03-22T18:25:10;20.58;;;11.30;;
75920;SDS011;64600;44.062;2.986;2023-03-22T18:27:37;14.82;;;8.70;;
75920;SDS011;64600;44.062;2.986;2023-03-22T18:30:03;12.98;;;6.63;;
75920;SDS011;64600;44.062;2.986;2023-03-22T18:34:55;14.98;;;9.68;;
75920;SDS011;64600;44.062;2.986;2023-03-22T18:37:21;8.13;;;4.88;;
75920;SDS011;64600;44.062;2.986;2023-03-22T18:39:49;4.85;;;2.83;;
75920;SDS011;64600;44.062;2.986;2023-03-22T18:42:15;4.38;;;2.30;;
75920;SDS011;64600;44.062;2.986;2023-03-22T18:44:41;3.72;;;1.95;;
75920;SDS011;64600;44.062;2.986;2023-03-22T18:47:06;3.75;;;2.50;;
75920;SDS011;64600;44.062;2.986;2023-03-22T18:49:34;5.82;;;2.92;;
75920;SDS011;64600;44.062;2.986;2023-03-22T18:52:01;8.20;;;3.95;;
75920;SDS011;64600;44.062;2.986;2023-03-22T18:54:28;9.73;;;5.45;;
75920;SDS011;64600;44.062;2.986;2023-03-22T18:56:54;6.53;;;4.00;;
75920;SDS011;64600;44.062;2.986;2023-03-22T18:59:20;8.23;;;4.65;;
75920;SDS011;64600;44.062;2.986;2023-03-22T19:01:45;6.82;;;3.63;;
75920;SDS011;64600;44.062;2.986;2023-03-22T19:04:11;6.97;;;3.75;;
75920;SDS011;64600;44.062;2.986;2023-03-22T19:06:38;6.72;;;3.60;;
75920;SDS011;64600;44.062;2.986;2023-03-22T19:09:08;9.75;;;3.65;;
75920;SDS011;64600;44.062;2.986;2023-03-22T19:11:37;7.18;;;3.60;;
75920;SDS011;64600;44.062;2.986;2023-03-22T19:14:03;7.30;;;3.25;;
75920;SDS011;64600;44.062;2.986;2023-03-22T19:16:28;4.80;;;3.63;;
75920;SDS011;64600;44.062;2.986;2023-03-22T19:18:54;9.20;;;6.13;;
75920;SDS011;64600;44.062;2.986;2023-03-22T19:21:19;29.40;;;16.17;;
75920;SDS011;64600;44.062;2.986;2023-03-22T19:23:45;28.80;;;16.48;;
75920;SDS011;64600;44.062;2.986;2023-03-22T19:26:10;14.75;;;8.38;;
75920;SDS011;64600;44.062;2.986;2023-03-22T19:28:36;16.77;;;8.60;;
75920;SDS011;64600;44.062;2.986;2023-03-22T19:31:02;17.77;;;10.20;;
75920;SDS011;64600;44.062;2.986;2023-03-22T19:33:29;20.08;;;11.43;;
75920;SDS011;64600;44.062;2.986;2023-03-22T19:35:54;15.70;;;9.52;;
75920;SDS011;64600;44.062;2.986;2023-03-22T19:38:20;14.63;;;7.57;;
75920;SDS011;64600;44.062;2.986;2023-03-22T19:40:45;10.73;;;6.45;;
75920;SDS011;64600;44.062;2.986;2023-03-22T19:43:12;13.25;;;6.18;;
75920;SDS011;64600;44.062;2.986;2023-03-22T19:45:42;11.70;;;6.88;;
75920;SDS011;64600;44.062;2.986;2023-03-22T19:48:09;15.15;;;7.30;;
75920;SDS011;64600;44.062;2.986;2023-03-22T19:50:38;11.25;;;6.70;;
75920;SDS011;64600;44.062;2.986;2023-03-22T19:53:06;8.77;;;5.72;;
75920;SDS011;64600;44.062;2.986;2023-03-22T19:55:33;11.60;;;6.38;;
75920;SDS011;64600;44.062;2.986;2023-03-22T19:57:59;7.97;;;4.78;;
75920;SDS011;64600;44.062;2.986;2023-03-22T20:00:25;12.48;;;5.18;;
75920;SDS011;64600;44.062;2.986;2023-03-22T20:05:17;7.57;;;3.72;;
75920;SDS011;64600;44.062;2.986;2023-03-22T20:07:42;6.82;;;3.33;;
75920;SDS011;64600;44.062;2.986;2023-03-22T20:10:08;4.88;;;2.83;;
75920;SDS011;64600;44.062;2.986;2023-03-22T20:12:34;6.53;;;3.65;;
75920;SDS011;64600;44.062;2.986;2023-03-22T20:15:00;4.57;;;2.70;;
75920;SDS011;64600;44.062;2.986;2023-03-22T20:17:25;3.17;;;2.20;;
75920;SDS011;64600;44.062;2.986;2023-03-22T20:19:51;4.43;;;2.20;;
75920;SDS011;64600;44.062;2.986;2023-03-22T20:22:17;4.60;;;2.50;;
75920;SDS011;64600;44.062;2.986;2023-03-22T20:24:43;3.77;;;2.20;;
75920;SDS011;64600;44.062;2.986;2023-03-22T20:27:09;4.28;;;2.28;;
75920;SDS011;64600;44.062;2.986;2023-03-22T20:29:35;8.25;;;5.00;;
75920;SDS011;64600;44.062;2.986;2023-03-22T20:32:00;8.82;;;5.00;;
75920;SDS011;64600;44.062;2.986;2023-03-22T20:34:26;7.22;;;3.35;;
75920;SDS011;64600;44.062;2.986;2023-03-22T20:36:52;4.63;;;2.90;;
75920;SDS011;64600;44.062;2.986;2023-03-22T20:39:18;6.10;;;2.38;;
75920;SDS011;64600;44.062;2.986;2023-03-22T20:41:44;9.55;;;5.22;;
75920;SDS011;64600;44.062;2.986;2023-03-22T20:44:09;8.77;;;5.00;;
75920;SDS011;64600;44.062;2.986;2023-03-22T20:46:35;8.88;;;3.78;;
75920;SDS011;64600;44.062;2.986;2023-03-22T20:49:00;6.38;;;2.35;;
75920;SDS011;64600;44.062;2.986;2023-03-22T20:51:26;3.30;;;1.90;;
75920;SDS011;64600;44.062;2.986;2023-03-22T20:53:53;3.95;;;2.15;;
75920;SDS011;64600;44.062;2.986;2023-03-22T20:56:18;4.10;;;2.67;;
75920;SDS011;64600;44.062;2.986;2023-03-22T20:58:44;8.00;;;3.83;;
75920;SDS011;64600;44.062;2.986;2023-03-22T21:01:10;5.25;;;2.90;;
75920;SDS011;64600;44.062;2.986;2023-03-22T21:03:38;3.80;;;2.50;;
75920;SDS011;64600;44.062;2.986;2023-03-22T21:08:34;3.22;;;2.17;;
75920;SDS011;64600;44.062;2.986;2023-03-22T21:11:04;5.35;;;2.97;;
